Meteo Giornale » Osservazioni meteo Germania » Ramstein

ore: 19:56 - Osservazioni Meteo Ramstein
Lat. 49° 26' N Lon. 7° 36' E Alt. 238 metri s.l.m.

poco_nuvoloso Europe/Berlin

15 °C

Poco Nuvoloso

Temp. 24 Ore

9 °C

20 °C

Nord

0 Km/h

Dew point 15 °C

Umidità 100 %

Visibilità  10 Km

Il sole sorge alle ore 07:07

Il sole tramonta alle ore 19:40

Data e Ora Cielo e Fenomeni T °C DP °C Um. % Pres. hPa Vis. km Vento km/h
Oggi h: 19:56 poco_nuvoloso Poco Nuvoloso 15 15 100 1015 10 N 0
Oggi h: 18:56 coperto Coperto 17 15 88 1015 10 N 5.5
Oggi h: 17:56 molto_nuvoloso Molto Nuvoloso 20 11 56 1015 10 N 0
Oggi h: 16:56 coperto Coperto 19 11 59 1015 10 N 0
Oggi h: 15:56 molto_nuvoloso Molto Nuvoloso 19 11 59 1015 10 N 5.5
Oggi h: 14:56 coperto Coperto 19 10 55 1016 10 N 0
Oggi h: 14:32 coperto Coperto 20 11 56 1016 10 E/NE 7.4
Oggi h: 13:56 nuvoloso Nuvoloso 19 10 55 1016 10 SE 7.4
Oggi h: 12:56 poco_nuvoloso Poco Nuvoloso 19 10 55 1016 10 N 0
Oggi h: 11:56 nuvoloso Nuvoloso 19 12 63 1017 10 N 0
Oggi h: 10:51 foschia Foschia 16 15 93 1017 4 N 0
Oggi h: 09:56 foschia Foschia 13 13 100 1017 8 N 0
Oggi h: 08:56 coperto Coperto 12 12 100 1017 10 N 0
Oggi h: 07:56 coperto Coperto 11 11 100 1017 10 N 0
Oggi h: 07:29 foschia Foschia 10 10 100 1017 6 N 0
Oggi h: 07:06 foschia Foschia 11 11 100 1017 6 N 0
Oggi h: 06:56 foschia Foschia 11 11 100 1017 6 N 0
Oggi h: 06:26 foschia Foschia 10 10 100 1017 5 N 0
Oggi h: 06:21 foschia Foschia 10 10 100 1017 4 N 0
Oggi h: 06:11 foschia Foschia 10 10 100 1017 2 N 0
Oggi h: 05:56 foschia Foschia 10 10 100 1017 2 N 0
Oggi h: 05:41 foschia Foschia 10 10 100 1017 1 N 0
Oggi h: 05:31 foschia Foschia 10 10 100 1017 2 N 0
Oggi h: 05:21 nebbia Nebbia 10 10 100 1017 0.8 N 0
Oggi h: 04:56 nebbia Nebbia 10 10 100 1017 0.4 N 0
Oggi h: 04:36 nebbia Nebbia 9 9 100 1017 0.8 N 0
Oggi h: 04:31 foschia Foschia 9 9 100 1017 2 N 0
Oggi h: 04:16 foschia Foschia 9 9 100 1017 5 N 0
Oggi h: 03:56 foschia Foschia 9 9 100 1017 6 N 0
Oggi h: 02:56 foschia Foschia 10 10 100 1018 9 N 0
Oggi h: 02:41 foschia Foschia 10 10 100 1018 5 N 0
Oggi h: 02:36 foschia Foschia 10 10 100 1018 3 N 0
Oggi h: 02:31 foschia Foschia 11 11 100 1018 1 N 0
Oggi h: 01:56 nuvoloso Nuvoloso 12 12 100 1018 10 N 0
Oggi h: 01:36 foschia Foschia 12 12 100 1018 5 N 0
Oggi h: 00:56 molto_nuvoloso Molto Nuvoloso 12 12 100 1018 10 N 0
Ieri h: 23:56 nuvoloso Nuvoloso 14 14 100 1018 10 N 0
Ieri h: 22:56 coperto Coperto 15 15 100 1018 10 N 0
Ieri h: 21:56 coperto Coperto 15 15 100 1018 10 N 0
Ieri h: 20:56 coperto Coperto 16 15 93 1017 10 N 0